Marion, MT

7:25 AM MST on February 11, 2016 (GMT -0700)
Mullan Pass | | Change Station
CLOSE
Current Station
Airport
Location: Mullan Pass,
Elevation: 6073 ft
Nearby Weather Stations

Elev 6073 ft 47.45 °N, 115.67 °W | Updated 21 minutes ago

Mostly Cloudy
Mostly Cloudy
32 °F
Feels Like 29 °F
N
4
Wind Variable Wind from Variable

Today
High -- | Low -- °F
--% Chance of Precip.
Yesterday
High -- | Low -- °F
Precip. -- in
Pressure 30.25 in
Visibility 10.0 miles
Clouds Scattered Clouds 900 ft
Windchill 29 °F
Dew Point 30 °F
Humidity 92%
Rainfall 0.00 in
Snow Depth Not available.
7:52 AM 5:54 PM
Waxing Crescent, 12% visible
SPECI KMLP 111404Z AUTO VRB03KT 10SM SCT009 00/M01 A3025 RMK AO2 T00001011 $
Pressure 30.25 in
Visibility 10.0 miles
Clouds Scattered Clouds 900 ft
Windchill 29 °F
Dew Point 30 °F
Humidity 92%
Rainfall 0.00 in
Snow Depth Not available.
7:52 AM 5:54 PM
Waxing Crescent, 12% visible
SPECI KMLP 111404Z AUTO VRB03KT 10SM SCT009 00/M01 A3025 RMK AO2 T00001011 $

10-Day Weather Forecast

Almanac

Astronomy

Feb. 11, 2016 Rise Set
Actual Time
Civil Twilight
Nautical Twilight
Astronomical Twilight
Moon
Length of Visible Light
Length of Day
Tomorrow will be .
, % of the Moon is Illuminated

Today's Extremes

State Highs State Lows

Community

WunderPhotos

Upload Photos

1,892,048 photos uploaded!

WunderBlog® & News

Nearby

Air Quality

  Air Quality AQ Index Pollutant
Not available.

Snow Depth

Station Depth Elevation

Earthquake Activity

City Distance Mag. Time & Date
Minimum magnitude displayed is 2.5.

Coastal Water Temperatures

Place Temperature

Stations

Nearby Weather Stations

Station Location Temp. Windchill Dew Point Humidity Wind Precip. Elev Updated Type
                   

Watches & Warnings

There are currently no watches in effect.